Tk Rotterdam — A8RG8 — position and weather

sailwx.info

Track history (hours):
 
Tides and Currents Weather Stations Pressure Air Temp Water Temp Dewpoint Dewpoint Depression Visibility Wind Speed Wind Dir Waves Ship Positions

Tk Rotterdam

Last reported at 2014-Dec-20 05:23 UTC. Time now 2014-Dec-21 08:34 UTC.
Position N 55°22' E 018°49'.

Length 130 m; draft 5.4 m.

Type: Cargo ship. MMSI: 636014098.

Date/timePositionNaut miles runAvg speedWind from/ knotsBaromVisibWave heightAir tempDewpointWater temp
2014-Dec-20 05:23N 55°22' E 018°49'1010.2
2014-Dec-20 04:25N 55°20' E 018°32'9010.1
2014-Dec-19 19:28N 55°01' E 015°58'1010.3
2014-Dec-19 18:32N 54°59' E 015°41'1010.5
2014-Dec-19 17:33N 54°57' E 015°24'1010.5
2014-Dec-19 16:33N 54°55' E 015°06'1010.2
2014-Dec-19 15:33N 54°53' E 014°48'10 9.8
2014-Dec-19 14:33N 54°55' E 014°32'9 9.4
2014-Dec-19 13:33N 54°58' E 014°16'10 9.2
2014-Dec-19 12:31N 55°01' E 014°00'9 9.2
2014-Dec-19 11:33N 55°04' E 013°46'10 9.3
2014-Dec-19 10:30N 55°07' E 013°30'9 9.4
2014-Dec-19 09:33N 55°10' E 013°15'10 9.8
2014-Dec-19 08:33N 55°14' E 012°59'1010.1
2014-Dec-19 07:33N 55°17' E 012°42'8 8.2
2014-Dec-19 06:33N 55°25' E 012°40'10 9.9
2014-Dec-19 05:33N 55°35' E 012°42'1010.3
2014-Dec-19 04:33N 55°45' E 012°42'10 9.9
2014-Dec-19 03:33N 55°55' E 012°38'10 9.7
2014-Dec-19 02:33N 56°04' E 012°36'1111.0
2014-Dec-19 01:33N 56°10' E 012°20'10 9.6
2014-Dec-19 00:33N 56°11' E 012°03'61 6.7
2014-Dec-18 15:29N 56°09' E 010°13'0 0.0
2014-Dec-18 14:31N 56°09' E 010°13'0 0.0
2014-Dec-18 13:29N 56°09' E 010°13'0 0.0
2014-Dec-18 12:26N 56°09' E 010°13'0 0.0
2014-Dec-18 10:24N 56°09' E 010°13'0 0.0
2014-Dec-18 09:33N 56°09' E 010°13'0 0.0
2014-Dec-18 08:29N 56°09' E 010°13'0 0.0
2014-Dec-18 07:32N 56°09' E 010°13'0 0.0
2014-Dec-18 06:31N 56°09' E 010°13'0 0.0
2014-Dec-17 18:27N 56°09' E 010°13'0 0.0
2014-Dec-17 17:32N 56°09' E 010°13'0 0.0
2014-Dec-17 13:09N 56°09' E 010°13'0 0.0
2014-Dec-17 12:11N 56°09' E 010°13'0 0.0
2014-Dec-17 11:20N 56°09' E 010°13'0 0.0
2014-Dec-17 09:18N 56°09' E 010°13'0 0.0
2014-Dec-17 08:33N 56°09' E 010°13'0 0.0
2014-Dec-17 07:05N 56°09' E 010°13'0 0.0
2014-Dec-17 06:29N 56°09' E 010°13'0 0.0
2014-Dec-16 22:30N 56°09' E 010°13'0 0.0
2014-Dec-16 21:33N 56°09' E 010°13'0 0.0
2014-Dec-16 20:29N 56°09' E 010°13'0 0.0
2014-Dec-16 19:31N 56°09' E 010°13'0 0.0
2014-Dec-16 18:31N 56°09' E 010°13'0 0.0
2014-Dec-16 17:33N 56°09' E 010°13'0 0.0
2014-Dec-16 16:30N 56°09' E 010°13'0 0.0
2014-Dec-16 15:32N 56°09' E 010°13'0 0.0
2014-Dec-16 14:31N 56°09' E 010°13'0 0.0
2014-Dec-16 13:31N 56°09' E 010°13'0 0.0
2014-Dec-16 12:33N 56°09' E 010°13'0 0.0
2014-Dec-16 11:30N 56°09' E 010°13'0 0.0
2014-Dec-16 10:32N 56°09' E 010°13'0 0.0
2014-Dec-16 09:19N 56°09' E 010°13'0 0.0
2014-Dec-16 08:28N 56°09' E 010°13'0 0.0
2014-Dec-16 07:33N 56°09' E 010°13'0 0.0
2014-Dec-16 06:33N 56°09' E 010°13'0 0.0
2014-Dec-15 18:22N 56°09' E 010°13'0 0.0
2014-Dec-15 16:30N 56°09' E 010°13'0 0.0
2014-Dec-15 15:30N 56°09' E 010°13'0 0.0
2014-Dec-15 14:32N 56°09' E 010°13'0 0.0
2014-Dec-15 13:25N 56°09' E 010°13'0 0.0
2014-Dec-15 12:31N 56°09' E 010°13'0 0.0
2014-Dec-15 11:33N 56°09' E 010°13'0 0.0
2014-Dec-15 10:33N 56°09' E 010°13'0 0.0
2014-Dec-15 09:32N 56°09' E 010°13'0 0.0
2014-Dec-15 08:32N 56°09' E 010°13'0 0.0
2014-Dec-15 07:31N 56°09' E 010°13'0 0.0
2014-Dec-15 06:33N 56°09' E 010°13'  
2014-Dec-12 22:31N 56°47' E 011°50'1212.9
2014-Dec-12 21:33N 56°59' E 011°43'1313.1
2014-Dec-12 20:33N 57°11' E 011°35'1312.5
2014-Dec-12 19:33N 57°23' E 011°28'1312.6
2014-Dec-12 18:33N 57°34' E 011°16'1312.5
2014-Dec-12 17:33N 57°44' E 011°02'1211.6
2014-Dec-12 16:33N 57°48' E 010°42'1612.9
2014-Dec-12 15:19N 57°46' E 010°13'1114.1
2014-Dec-12 14:32N 57°42' E 009°53'6712.2
2014-Dec-12 09:04N 57°11' E 008°03'111 8.8
2014-Dec-11 20:28N 55°33' E 006°29'17 7.9
2014-Dec-11 18:19N 55°18' E 006°15'7 7.9
2014-Dec-11 17:29N 55°13' E 006°09'65 8.1
2014-Dec-11 09:29N 54°19' E 005°05'8 7.6
2014-Dec-11 08:27N 54°13' E 004°59'7 7.9
2014-Dec-11 07:32N 54°06' E 004°53'9 8.7
2014-Dec-11 06:31N 53°60' E 004°43'164 9.6
2014-Dec-10 13:32N 51°38' E 002°27'1212.3
2014-Dec-10 12:33N 51°29' E 002°14'10 9.5
2014-Dec-10 11:32N 51°22' E 002°04'8 7.7
2014-Dec-10 10:33N 51°17' E 001°55'7 7.2
2014-Dec-10 09:33N 51°13' E 001°45'6 6.0
2014-Dec-10 08:33N 51°18' E 001°39'0 0.1
2014-Dec-10 07:32N 51°18' E 001°39'0 0.1
2014-Dec-10 06:32N 51°18' E 001°39'0 0.0
2014-Dec-10 05:31N 51°18' E 001°39'  
Track history (hours):
 
Tides and Currents Weather Stations Pressure Air Temp Water Temp Dewpoint Dewpoint Depression Visibility Wind Speed Wind Dir Waves Ship Positions

Tk Rotterdam

Last reported at 2014-Dec-20 05:23 UTC. Time now 2014-Dec-21 08:34 UTC.
Position N 55°22' E 018°49'.

Length 130 m; draft 5.4 m.

Type: Cargo ship. MMSI: 636014098.

Date/timePositionNaut miles runAvg speedWind from/ knotsBaromVisibWave heightAir tempDewpointWater temp
2014-Dec-20 05:23N 55°22' E 018°49'1010.2
2014-Dec-20 04:25N 55°20' E 018°32'9010.1
2014-Dec-19 19:28N 55°01' E 015°58'1010.3
2014-Dec-19 18:32N 54°59' E 015°41'1010.5
2014-Dec-19 17:33N 54°57' E 015°24'1010.5
2014-Dec-19 16:33N 54°55' E 015°06'1010.2
2014-Dec-19 15:33N 54°53' E 014°48'10 9.8
2014-Dec-19 14:33N 54°55' E 014°32'9 9.4
2014-Dec-19 13:33N 54°58' E 014°16'10 9.2
2014-Dec-19 12:31N 55°01' E 014°00'9 9.2
2014-Dec-19 11:33N 55°04' E 013°46'10 9.3
2014-Dec-19 10:30N 55°07' E 013°30'9 9.4
2014-Dec-19 09:33N 55°10' E 013°15'10 9.8
2014-Dec-19 08:33N 55°14' E 012°59'1010.1
2014-Dec-19 07:33N 55°17' E 012°42'8 8.2
2014-Dec-19 06:33N 55°25' E 012°40'10 9.9
2014-Dec-19 05:33N 55°35' E 012°42'1010.3
2014-Dec-19 04:33N 55°45' E 012°42'10 9.9
2014-Dec-19 03:33N 55°55' E 012°38'10 9.7
2014-Dec-19 02:33N 56°04' E 012°36'1111.0
2014-Dec-19 01:33N 56°10' E 012°20'10 9.6
2014-Dec-19 00:33N 56°11' E 012°03'61 6.7
2014-Dec-18 15:29N 56°09' E 010°13'0 0.0
2014-Dec-18 14:31N 56°09' E 010°13'0 0.0
2014-Dec-18 13:29N 56°09' E 010°13'0 0.0
2014-Dec-18 12:26N 56°09' E 010°13'0 0.0
2014-Dec-18 10:24N 56°09' E 010°13'0 0.0
2014-Dec-18 09:33N 56°09' E 010°13'0 0.0
2014-Dec-18 08:29N 56°09' E 010°13'0 0.0
2014-Dec-18 07:32N 56°09' E 010°13'0 0.0
2014-Dec-18 06:31N 56°09' E 010°13'0 0.0
2014-Dec-17 18:27N 56°09' E 010°13'0 0.0
2014-Dec-17 17:32N 56°09' E 010°13'0 0.0
2014-Dec-17 13:09N 56°09' E 010°13'0 0.0
2014-Dec-17 12:11N 56°09' E 010°13'0 0.0
2014-Dec-17 11:20N 56°09' E 010°13'0 0.0
2014-Dec-17 09:18N 56°09' E 010°13'0 0.0
2014-Dec-17 08:33N 56°09' E 010°13'0 0.0
2014-Dec-17 07:05N 56°09' E 010°13'0 0.0
2014-Dec-17 06:29N 56°09' E 010°13'0 0.0
2014-Dec-16 22:30N 56°09' E 010°13'0 0.0
2014-Dec-16 21:33N 56°09' E 010°13'0 0.0
2014-Dec-16 20:29N 56°09' E 010°13'0 0.0
2014-Dec-16 19:31N 56°09' E 010°13'0 0.0
2014-Dec-16 18:31N 56°09' E 010°13'0 0.0
2014-Dec-16 17:33N 56°09' E 010°13'0 0.0
2014-Dec-16 16:30N 56°09' E 010°13'0 0.0
2014-Dec-16 15:32N 56°09' E 010°13'0 0.0
2014-Dec-16 14:31N 56°09' E 010°13'0 0.0
2014-Dec-16 13:31N 56°09' E 010°13'0 0.0
2014-Dec-16 12:33N 56°09' E 010°13'0 0.0
2014-Dec-16 11:30N 56°09' E 010°13'0 0.0
2014-Dec-16 10:32N 56°09' E 010°13'0 0.0
2014-Dec-16 09:19N 56°09' E 010°13'0 0.0
2014-Dec-16 08:28N 56°09' E 010°13'0 0.0
2014-Dec-16 07:33N 56°09' E 010°13'0 0.0
2014-Dec-16 06:33N 56°09' E 010°13'0 0.0
2014-Dec-15 18:22N 56°09' E 010°13'0 0.0
2014-Dec-15 16:30N 56°09' E 010°13'0 0.0
2014-Dec-15 15:30N 56°09' E 010°13'0 0.0
2014-Dec-15 14:32N 56°09' E 010°13'0 0.0
2014-Dec-15 13:25N 56°09' E 010°13'0 0.0
2014-Dec-15 12:31N 56°09' E 010°13'0 0.0
2014-Dec-15 11:33N 56°09' E 010°13'0 0.0
2014-Dec-15 10:33N 56°09' E 010°13'0 0.0
2014-Dec-15 09:32N 56°09' E 010°13'0 0.0
2014-Dec-15 08:32N 56°09' E 010°13'0 0.0
2014-Dec-15 07:31N 56°09' E 010°13'0 0.0
2014-Dec-15 06:33N 56°09' E 010°13'  
2014-Dec-12 22:31N 56°47' E 011°50'1212.9
2014-Dec-12 21:33N 56°59' E 011°43'1313.1
2014-Dec-12 20:33N 57°11' E 011°35'1312.5
2014-Dec-12 19:33N 57°23' E 011°28'1312.6
2014-Dec-12 18:33N 57°34' E 011°16'1312.5
2014-Dec-12 17:33N 57°44' E 011°02'1211.6
2014-Dec-12 16:33N 57°48' E 010°42'1612.9
2014-Dec-12 15:19N 57°46' E 010°13'1114.1
2014-Dec-12 14:32N 57°42' E 009°53'6712.2
2014-Dec-12 09:04N 57°11' E 008°03'111 8.8
2014-Dec-11 20:28N 55°33' E 006°29'17 7.9
2014-Dec-11 18:19N 55°18' E 006°15'7 7.9
2014-Dec-11 17:29N 55°13' E 006°09'65 8.1
2014-Dec-11 09:29N 54°19' E 005°05'8 7.6
2014-Dec-11 08:27N 54°13' E 004°59'7 7.9
2014-Dec-11 07:32N 54°06' E 004°53'9 8.7
2014-Dec-11 06:31N 53°60' E 004°43'164 9.6
2014-Dec-10 13:32N 51°38' E 002°27'1212.3
2014-Dec-10 12:33N 51°29' E 002°14'10 9.5
2014-Dec-10 11:32N 51°22' E 002°04'8 7.7
2014-Dec-10 10:33N 51°17' E 001°55'7 7.2
2014-Dec-10 09:33N 51°13' E 001°45'6 6.0
2014-Dec-10 08:33N 51°18' E 001°39'0 0.1
2014-Dec-10 07:32N 51°18' E 001°39'0 0.1
2014-Dec-10 06:32N 51°18' E 001°39'0 0.0
2014-Dec-10 05:31N 51°18' E 001°39'  

Dump ship's entire track history